sensor_id;sensor_type;location;lat;lon;timestamp;temperature;humidity
2869;DHT22;1442;47.448;8.582;2024-02-28T00:00:44;8.70;99.90
2869;DHT22;1442;47.448;8.582;2024-02-28T00:03:11;8.70;99.90
2869;DHT22;1442;47.448;8.582;2024-02-28T00:05:38;8.80;99.90
2869;DHT22;1442;47.448;8.582;2024-02-28T00:08:05;8.70;99.90
2869;DHT22;1442;47.448;8.582;2024-02-28T00:10:32;8.80;99.90
2869;DHT22;1442;47.448;8.582;2024-02-28T00:12:59;8.70;99.90
2869;DHT22;1442;47.448;8.582;2024-02-28T00:15:27;8.70;99.90
2869;DHT22;1442;47.448;8.582;2024-02-28T00:17:54;8.70;99.90
2869;DHT22;1442;47.448;8.582;2024-02-28T00:20:21;8.70;99.90
2869;DHT22;1442;47.448;8.582;2024-02-28T00:22:49;8.80;99.90
2869;DHT22;1442;47.448;8.582;2024-02-28T00:25:16;8.80;99.90
2869;DHT22;1442;47.448;8.582;2024-02-28T00:27:43;8.70;99.90
2869;DHT22;1442;47.448;8.582;2024-02-28T00:30:10;8.80;99.90
2869;DHT22;1442;47.448;8.582;2024-02-28T00:32:38;8.70;99.90
2869;DHT22;1442;47.448;8.582;2024-02-28T00:35:05;8.70;99.90
2869;DHT22;1442;47.448;8.582;2024-02-28T00:37:32;8.70;99.90
2869;DHT22;1442;47.448;8.582;2024-02-28T00:39:59;8.80;99.90
2869;DHT22;1442;47.448;8.582;2024-02-28T00:42:25;8.70;99.90
2869;DHT22;1442;47.448;8.582;2024-02-28T00:44:52;8.70;99.90
2869;DHT22;1442;47.448;8.582;2024-02-28T00:47:19;8.70;99.90
2869;DHT22;1442;47.448;8.582;2024-02-28T00:49:47;8.70;99.90
2869;DHT22;1442;47.448;8.582;2024-02-28T00:52:14;8.70;99.90
2869;DHT22;1442;47.448;8.582;2024-02-28T00:54:41;8.70;99.90
2869;DHT22;1442;47.448;8.582;2024-02-28T00:57:07;8.80;99.90
2869;DHT22;1442;47.448;8.582;2024-02-28T00:59:34;8.80;99.90
2869;DHT22;1442;47.448;8.582;2024-02-28T01:02:01;8.80;99.90
2869;DHT22;1442;47.448;8.582;2024-02-28T01:04:28;8.80;99.90
2869;DHT22;1442;47.448;8.582;2024-02-28T01:06:56;8.80;99.90
2869;DHT22;1442;47.448;8.582;2024-02-28T01:09:23;8.80;99.90
2869;DHT22;1442;47.448;8.582;2024-02-28T01:11:50;8.80;99.90
2869;DHT22;1442;47.448;8.582;2024-02-28T01:14:17;8.80;99.90
2869;DHT22;1442;47.448;8.582;2024-02-28T01:16:43;8.80;99.90
2869;DHT22;1442;47.448;8.582;2024-02-28T01:19:10;8.80;99.90
2869;DHT22;1442;47.448;8.582;2024-02-28T01:21:38;8.80;99.90
2869;DHT22;1442;47.448;8.582;2024-02-28T01:24:06;8.80;99.90
2869;DHT22;1442;47.448;8.582;2024-02-28T01:26:33;8.80;99.90
2869;DHT22;1442;47.448;8.582;2024-02-28T01:29:00;8.80;99.90
2869;DHT22;1442;47.448;8.582;2024-02-28T01:31:27;8.80;99.90
2869;DHT22;1442;47.448;8.582;2024-02-28T01:33:54;8.80;99.90
2869;DHT22;1442;47.448;8.582;2024-02-28T01:36:21;8.80;99.90
2869;DHT22;1442;47.448;8.582;2024-02-28T01:38:48;8.80;99.90
2869;DHT22;1442;47.448;8.582;2024-02-28T01:41:16;8.80;99.90
2869;DHT22;1442;47.448;8.582;2024-02-28T01:43:43;8.80;99.90
2869;DHT22;1442;47.448;8.582;2024-02-28T01:46:20;8.70;99.90
2869;DHT22;1442;47.448;8.582;2024-02-28T01:48:48;8.70;99.90
2869;DHT22;1442;47.448;8.582;2024-02-28T01:51:15;8.80;99.90
2869;DHT22;1442;47.448;8.582;2024-02-28T01:53:42;8.80;99.90
2869;DHT22;1442;47.448;8.582;2024-02-28T01:56:10;8.80;99.90
2869;DHT22;1442;47.448;8.582;2024-02-28T01:58:39;8.80;99.90
2869;DHT22;1442;47.448;8.582;2024-02-28T02:01:06;8.80;99.90
2869;DHT22;1442;47.448;8.582;2024-02-28T02:03:33;8.80;99.90
2869;DHT22;1442;47.448;8.582;2024-02-28T02:06:01;8.80;99.90
2869;DHT22;1442;47.448;8.582;2024-02-28T02:08:28;8.80;99.90
2869;DHT22;1442;47.448;8.582;2024-02-28T02:10:55;8.80;99.90
2869;DHT22;1442;47.448;8.582;2024-02-28T02:13:22;8.70;99.90
2869;DHT22;1442;47.448;8.582;2024-02-28T02:15:50;8.70;99.90
2869;DHT22;1442;47.448;8.582;2024-02-28T02:18:17;8.70;99.90
2869;DHT22;1442;47.448;8.582;2024-02-28T02:20:44;8.70;99.90
2869;DHT22;1442;47.448;8.582;2024-02-28T02:23:14;8.70;99.90
2869;DHT22;1442;47.448;8.582;2024-02-28T02:25:44;8.70;99.90
2869;DHT22;1442;47.448;8.582;2024-02-28T02:28:11;8.70;99.90
2869;DHT22;1442;47.448;8.582;2024-02-28T02:30:38;8.70;99.90
2869;DHT22;1442;47.448;8.582;2024-02-28T02:33:07;8.70;99.90
2869;DHT22;1442;47.448;8.582;2024-02-28T02:35:34;8.70;99.90
2869;DHT22;1442;47.448;8.582;2024-02-28T02:38:00;8.70;99.90
2869;DHT22;1442;47.448;8.582;2024-02-28T02:40:29;8.60;99.90
2869;DHT22;1442;47.448;8.582;2024-02-28T02:42:55;8.70;99.90
2869;DHT22;1442;47.448;8.582;2024-02-28T02:45:22;8.60;99.90
2869;DHT22;1442;47.448;8.582;2024-02-28T02:47:49;8.60;99.90
2869;DHT22;1442;47.448;8.582;2024-02-28T02:50:16;8.50;99.90
2869;DHT22;1442;47.448;8.582;2024-02-28T02:52:43;8.60;99.90
2869;DHT22;1442;47.448;8.582;2024-02-28T02:55:10;8.60;99.90
2869;DHT22;1442;47.448;8.582;2024-02-28T02:57:39;8.70;99.90
2869;DHT22;1442;47.448;8.582;2024-02-28T03:00:09;8.60;99.90
2869;DHT22;1442;47.448;8.582;2024-02-28T03:02:35;8.70;99.90
2869;DHT22;1442;47.448;8.582;2024-02-28T03:05:04;8.60;99.90
2869;DHT22;1442;47.448;8.582;2024-02-28T03:07:30;8.60;99.90
2869;DHT22;1442;47.448;8.582;2024-02-28T03:09:57;8.60;99.90
2869;DHT22;1442;47.448;8.582;2024-02-28T03:12:24;8.60;99.90
2869;DHT22;1442;47.448;8.582;2024-02-28T03:14:52;8.50;99.90
2869;DHT22;1442;47.448;8.582;2024-02-28T03:17:19;8.60;99.90
2869;DHT22;1442;47.448;8.582;2024-02-28T03:19:46;8.60;99.90
2869;DHT22;1442;47.448;8.582;2024-02-28T03:22:13;8.60;99.90
2869;DHT22;1442;47.448;8.582;2024-02-28T03:24:39;8.60;99.90
2869;DHT22;1442;47.448;8.582;2024-02-28T03:27:06;8.60;99.90
2869;DHT22;1442;47.448;8.582;2024-02-28T03:29:33;8.60;99.90
2869;DHT22;1442;47.448;8.582;2024-02-28T03:32:02;8.70;99.90
2869;DHT22;1442;47.448;8.582;2024-02-28T03:34:29;8.50;99.90
2869;DHT22;1442;47.448;8.582;2024-02-28T03:36:56;8.60;99.90
2869;DHT22;1442;47.448;8.582;2024-02-28T03:39:22;8.50;99.90
2869;DHT22;1442;47.448;8.582;2024-02-28T03:41:49;8.60;99.90
2869;DHT22;1442;47.448;8.582;2024-02-28T03:44:16;8.60;99.90
2869;DHT22;1442;47.448;8.582;2024-02-28T03:46:43;8.60;99.90
2869;DHT22;1442;47.448;8.582;2024-02-28T03:49:11;8.60;99.90
2869;DHT22;1442;47.448;8.582;2024-02-28T03:51:39;8.60;99.90
2869;DHT22;1442;47.448;8.582;2024-02-28T03:54:07;8.60;99.90
2869;DHT22;1442;47.448;8.582;2024-02-28T03:56:34;8.60;99.90
2869;DHT22;1442;47.448;8.582;2024-02-28T03:59:01;8.50;99.90
2869;DHT22;1442;47.448;8.582;2024-02-28T04:01:29;8.50;99.90
2869;DHT22;1442;47.448;8.582;2024-02-28T04:03:55;8.50;99.90
2869;DHT22;1442;47.448;8.582;2024-02-28T04:06:24;8.50;99.90
2869;DHT22;1442;47.448;8.582;2024-02-28T04:08:50;8.50;99.90
2869;DHT22;1442;47.448;8.582;2024-02-28T04:11:17;8.50;99.90
2869;DHT22;1442;47.448;8.582;2024-02-28T04:13:44;8.40;99.90
2869;DHT22;1442;47.448;8.582;2024-02-28T04:16:11;8.50;99.90
2869;DHT22;1442;47.448;8.582;2024-02-28T04:18:38;8.40;99.90
2869;DHT22;1442;47.448;8.582;2024-02-28T04:21:04;8.40;99.90
2869;DHT22;1442;47.448;8.582;2024-02-28T04:23:32;8.40;99.90
2869;DHT22;1442;47.448;8.582;2024-02-28T04:25:59;8.40;99.90
2869;DHT22;1442;47.448;8.582;2024-02-28T04:28:26;8.40;99.90
2869;DHT22;1442;47.448;8.582;2024-02-28T04:30:53;8.40;99.90
2869;DHT22;1442;47.448;8.582;2024-02-28T04:33:20;8.40;99.90
2869;DHT22;1442;47.448;8.582;2024-02-28T04:35:48;8.40;99.90
2869;DHT22;1442;47.448;8.582;2024-02-28T04:38:15;8.40;99.90
2869;DHT22;1442;47.448;8.582;2024-02-28T04:40:43;8.40;99.90
2869;DHT22;1442;47.448;8.582;2024-02-28T04:43:10;8.40;99.90
2869;DHT22;1442;47.448;8.582;2024-02-28T04:45:36;8.40;99.90
2869;DHT22;1442;47.448;8.582;2024-02-28T04:48:04;8.40;99.90
2869;DHT22;1442;47.448;8.582;2024-02-28T04:50:30;8.40;99.90
2869;DHT22;1442;47.448;8.582;2024-02-28T04:52:57;8.40;99.90
2869;DHT22;1442;47.448;8.582;2024-02-28T04:55:24;8.40;99.90
2869;DHT22;1442;47.448;8.582;2024-02-28T04:57:52;8.40;99.90
2869;DHT22;1442;47.448;8.582;2024-02-28T05:00:19;8.40;99.90
2869;DHT22;1442;47.448;8.582;2024-02-28T05:02:46;8.40;99.90
2869;DHT22;1442;47.448;8.582;2024-02-28T05:05:12;8.40;99.90
2869;DHT22;1442;47.448;8.582;2024-02-28T05:07:39;8.40;99.90
2869;DHT22;1442;47.448;8.582;2024-02-28T05:10:07;8.40;99.90
2869;DHT22;1442;47.448;8.582;2024-02-28T05:12:34;8.40;99.90
2869;DHT22;1442;47.448;8.582;2024-02-28T05:15:03;8.40;99.90
2869;DHT22;1442;47.448;8.582;2024-02-28T05:17:31;8.40;99.90
2869;DHT22;1442;47.448;8.582;2024-02-28T05:19:58;8.40;99.90
2869;DHT22;1442;47.448;8.582;2024-02-28T05:22:25;8.40;99.90
2869;DHT22;1442;47.448;8.582;2024-02-28T05:24:52;8.30;99.90
2869;DHT22;1442;47.448;8.582;2024-02-28T05:27:19;8.30;99.90
2869;DHT22;1442;47.448;8.582;2024-02-28T05:29:46;8.30;99.90
2869;DHT22;1442;47.448;8.582;2024-02-28T05:32:14;8.30;99.90
2869;DHT22;1442;47.448;8.582;2024-02-28T05:34:42;8.30;99.90
2869;DHT22;1442;47.448;8.582;2024-02-28T05:37:09;8.30;99.90
2869;DHT22;1442;47.448;8.582;2024-02-28T05:39:37;8.30;99.90
2869;DHT22;1442;47.448;8.582;2024-02-28T05:42:04;8.30;99.90
2869;DHT22;1442;47.448;8.582;2024-02-28T05:44:31;8.30;99.90
2869;DHT22;1442;47.448;8.582;2024-02-28T05:46:57;8.20;99.90
2869;DHT22;1442;47.448;8.582;2024-02-28T05:49:26;8.20;99.90
2869;DHT22;1442;47.448;8.582;2024-02-28T05:51:52;8.20;99.90
2869;DHT22;1442;47.448;8.582;2024-02-28T05:54:20;8.20;99.90
2869;DHT22;1442;47.448;8.582;2024-02-28T05:56:46;8.20;99.90
2869;DHT22;1442;47.448;8.582;2024-02-28T05:59:13;8.20;99.90
2869;DHT22;1442;47.448;8.582;2024-02-28T06:01:41;8.20;99.90
2869;DHT22;1442;47.448;8.582;2024-02-28T06:04:07;8.20;99.90
2869;DHT22;1442;47.448;8.582;2024-02-28T06:06:35;8.20;99.90
2869;DHT22;1442;47.448;8.582;2024-02-28T06:09:02;8.30;99.90
2869;DHT22;1442;47.448;8.582;2024-02-28T06:11:29;8.30;99.90
2869;DHT22;1442;47.448;8.582;2024-02-28T06:13:56;8.30;99.90
2869;DHT22;1442;47.448;8.582;2024-02-28T06:16:23;8.30;99.90
2869;DHT22;1442;47.448;8.582;2024-02-28T06:18:49;8.30;99.90
2869;DHT22;1442;47.448;8.582;2024-02-28T06:21:16;8.30;99.90
2869;DHT22;1442;47.448;8.582;2024-02-28T06:23:44;8.30;99.90
2869;DHT22;1442;47.448;8.582;2024-02-28T06:26:11;8.30;99.90
2869;DHT22;1442;47.448;8.582;2024-02-28T06:28:42;8.30;99.90
2869;DHT22;1442;47.448;8.582;2024-02-28T06:31:13;8.20;99.90
2869;DHT22;1442;47.448;8.582;2024-02-28T06:33:40;8.20;99.90
2869;DHT22;1442;47.448;8.582;2024-02-28T06:36:07;8.20;99.90
2869;DHT22;1442;47.448;8.582;2024-02-28T06:38:34;8.20;99.90
2869;DHT22;1442;47.448;8.582;2024-02-28T06:41:03;8.20;99.90
2869;DHT22;1442;47.448;8.582;2024-02-28T06:43:30;8.20;99.90
2869;DHT22;1442;47.448;8.582;2024-02-28T06:45:57;8.10;99.90
2869;DHT22;1442;47.448;8.582;2024-02-28T06:48:23;8.10;99.90
2869;DHT22;1442;47.448;8.582;2024-02-28T06:50:50;8.10;99.90
2869;DHT22;1442;47.448;8.582;2024-02-28T06:53:17;8.10;99.90
2869;DHT22;1442;47.448;8.582;2024-02-28T06:55:44;8.10;99.90
2869;DHT22;1442;47.448;8.582;2024-02-28T06:58:12;8.10;99.90
2869;DHT22;1442;47.448;8.582;2024-02-28T07:00:39;8.00;99.90
2869;DHT22;1442;47.448;8.582;2024-02-28T07:03:05;8.10;99.90
2869;DHT22;1442;47.448;8.582;2024-02-28T07:05:32;8.10;99.90
2869;DHT22;1442;47.448;8.582;2024-02-28T07:07:59;8.10;99.90
2869;DHT22;1442;47.448;8.582;2024-02-28T07:10:26;8.00;99.90
2869;DHT22;1442;47.448;8.582;2024-02-28T07:12:53;8.00;99.90
2869;DHT22;1442;47.448;8.582;2024-02-28T07:15:21;8.00;99.90
2869;DHT22;1442;47.448;8.582;2024-02-28T07:17:48;8.00;99.90
2869;DHT22;1442;47.448;8.582;2024-02-28T07:20:15;8.00;99.90
2869;DHT22;1442;47.448;8.582;2024-02-28T07:22:42;7.90;99.90
2869;DHT22;1442;47.448;8.582;2024-02-28T07:25:09;7.90;99.90
2869;DHT22;1442;47.448;8.582;2024-02-28T07:27:36;7.90;99.90
2869;DHT22;1442;47.448;8.582;2024-02-28T07:30:03;7.80;99.90
2869;DHT22;1442;47.448;8.582;2024-02-28T07:32:31;7.80;99.90
2869;DHT22;1442;47.448;8.582;2024-02-28T07:35:00;7.80;99.90
2869;DHT22;1442;47.448;8.582;2024-02-28T07:37:27;7.80;99.90
2869;DHT22;1442;47.448;8.582;2024-02-28T07:39:53;7.70;99.90
2869;DHT22;1442;47.448;8.582;2024-02-28T07:42:20;7.70;99.90
2869;DHT22;1442;47.448;8.582;2024-02-28T07:44:47;7.70;99.90
2869;DHT22;1442;47.448;8.582;2024-02-28T07:47:14;7.70;99.90
2869;DHT22;1442;47.448;8.582;2024-02-28T07:49:43;7.70;99.90
2869;DHT22;1442;47.448;8.582;2024-02-28T07:52:10;7.70;99.90
2869;DHT22;1442;47.448;8.582;2024-02-28T07:54:36;7.70;99.90
2869;DHT22;1442;47.448;8.582;2024-02-28T07:57:03;7.70;99.90
2869;DHT22;1442;47.448;8.582;2024-02-28T07:59:30;7.70;99.90
2869;DHT22;1442;47.448;8.582;2024-02-28T08:01:57;7.70;99.90
2869;DHT22;1442;47.448;8.582;2024-02-28T08:04:23;7.80;99.90
2869;DHT22;1442;47.448;8.582;2024-02-28T08:06:51;7.70;99.90
2869;DHT22;1442;47.448;8.582;2024-02-28T08:09:18;7.80;99.90
2869;DHT22;1442;47.448;8.582;2024-02-28T08:11:45;7.80;99.90
2869;DHT22;1442;47.448;8.582;2024-02-28T08:14:12;7.80;99.90
2869;DHT22;1442;47.448;8.582;2024-02-28T08:16:38;7.80;99.90
2869;DHT22;1442;47.448;8.582;2024-02-28T08:19:05;7.80;99.90
2869;DHT22;1442;47.448;8.582;2024-02-28T08:21:32;7.90;99.90
2869;DHT22;1442;47.448;8.582;2024-02-28T08:24:00;7.90;99.90
2869;DHT22;1442;47.448;8.582;2024-02-28T08:26:29;7.90;99.90
2869;DHT22;1442;47.448;8.582;2024-02-28T08:28:55;7.90;99.90
2869;DHT22;1442;47.448;8.582;2024-02-28T08:31:22;7.90;99.90
2869;DHT22;1442;47.448;8.582;2024-02-28T08:33:49;7.90;99.90
2869;DHT22;1442;47.448;8.582;2024-02-28T08:36:16;8.00;99.90
2869;DHT22;1442;47.448;8.582;2024-02-28T08:38:42;8.00;99.90
2869;DHT22;1442;47.448;8.582;2024-02-28T08:41:11;8.00;99.90
2869;DHT22;1442;47.448;8.582;2024-02-28T08:43:39;8.10;99.90
2869;DHT22;1442;47.448;8.582;2024-02-28T08:46:06;8.10;99.90
2869;DHT22;1442;47.448;8.582;2024-02-28T08:48:32;8.10;99.90
2869;DHT22;1442;47.448;8.582;2024-02-28T08:50:59;8.10;99.90
2869;DHT22;1442;47.448;8.582;2024-02-28T08:53:26;8.20;99.90
2869;DHT22;1442;47.448;8.582;2024-02-28T08:55:53;8.20;99.90
2869;DHT22;1442;47.448;8.582;2024-02-28T08:58:21;8.20;99.90
2869;DHT22;1442;47.448;8.582;2024-02-28T09:00:47;8.10;99.90
2869;DHT22;1442;47.448;8.582;2024-02-28T09:03:14;8.20;99.90
2869;DHT22;1442;47.448;8.582;2024-02-28T09:05:41;8.20;99.90
2869;DHT22;1442;47.448;8.582;2024-02-28T09:08:08;8.30;99.90
2869;DHT22;1442;47.448;8.582;2024-02-28T09:10:35;8.30;99.90
2869;DHT22;1442;47.448;8.582;2024-02-28T09:13:01;8.30;99.90
2869;DHT22;1442;47.448;8.582;2024-02-28T09:15:30;8.40;99.90
2869;DHT22;1442;47.448;8.582;2024-02-28T09:17:57;8.40;99.90
2869;DHT22;1442;47.448;8.582;2024-02-28T09:20:24;8.40;99.90
2869;DHT22;1442;47.448;8.582;2024-02-28T09:22:51;8.40;99.90
2869;DHT22;1442;47.448;8.582;2024-02-28T09:25:17;8.40;99.90
2869;DHT22;1442;47.448;8.582;2024-02-28T09:27:46;8.40;99.90
2869;DHT22;1442;47.448;8.582;2024-02-28T09:30:14;8.30;99.90
2869;DHT22;1442;47.448;8.582;2024-02-28T09:32:43;8.40;99.90
2869;DHT22;1442;47.448;8.582;2024-02-28T09:35:10;8.50;99.90
2869;DHT22;1442;47.448;8.582;2024-02-28T09:37:37;8.50;99.90
2869;DHT22;1442;47.448;8.582;2024-02-28T09:40:04;8.50;99.90
2869;DHT22;1442;47.448;8.582;2024-02-28T09:42:31;8.60;99.90
2869;DHT22;1442;47.448;8.582;2024-02-28T09:45:00;8.60;99.90
2869;DHT22;1442;47.448;8.582;2024-02-28T09:47:27;8.60;99.90
2869;DHT22;1442;47.448;8.582;2024-02-28T09:49:58;8.60;99.90
2869;DHT22;1442;47.448;8.582;2024-02-28T09:52:25;8.70;99.90
2869;DHT22;1442;47.448;8.582;2024-02-28T09:54:53;8.70;99.90
2869;DHT22;1442;47.448;8.582;2024-02-28T09:57:19;8.70;99.90
2869;DHT22;1442;47.448;8.582;2024-02-28T09:59:49;8.70;99.90
2869;DHT22;1442;47.448;8.582;2024-02-28T10:02:17;8.80;99.90
2869;DHT22;1442;47.448;8.582;2024-02-28T10:04:45;8.80;99.90
2869;DHT22;1442;47.448;8.582;2024-02-28T10:07:13;8.80;99.90
2869;DHT22;1442;47.448;8.582;2024-02-28T10:09:40;8.80;99.90
2869;DHT22;1442;47.448;8.582;2024-02-28T10:12:07;8.80;99.90
2869;DHT22;1442;47.448;8.582;2024-02-28T10:14:34;8.80;99.90
2869;DHT22;1442;47.448;8.582;2024-02-28T10:17:01;8.90;99.90
2869;DHT22;1442;47.448;8.582;2024-02-28T10:19:28;8.90;99.90
2869;DHT22;1442;47.448;8.582;2024-02-28T10:21:55;8.90;99.90
2869;DHT22;1442;47.448;8.582;2024-02-28T10:24:25;8.90;99.90
2869;DHT22;1442;47.448;8.582;2024-02-28T10:26:52;8.90;99.90
2869;DHT22;1442;47.448;8.582;2024-02-28T10:29:22;8.90;99.90
2869;DHT22;1442;47.448;8.582;2024-02-28T10:31:48;8.90;99.90
2869;DHT22;1442;47.448;8.582;2024-02-28T10:34:16;9.00;99.90
2869;DHT22;1442;47.448;8.582;2024-02-28T10:36:44;9.00;99.90
2869;DHT22;1442;47.448;8.582;2024-02-28T10:39:12;9.00;99.90
2869;DHT22;1442;47.448;8.582;2024-02-28T10:41:40;9.00;99.90
2869;DHT22;1442;47.448;8.582;2024-02-28T10:44:07;9.00;99.90
2869;DHT22;1442;47.448;8.582;2024-02-28T10:46:37;9.10;99.90
2869;DHT22;1442;47.448;8.582;2024-02-28T10:49:04;9.10;99.90
2869;DHT22;1442;47.448;8.582;2024-02-28T10:51:34;9.10;99.90
2869;DHT22;1442;47.448;8.582;2024-02-28T10:54:07;9.20;99.90
2869;DHT22;1442;47.448;8.582;2024-02-28T10:56:37;9.20;99.90
2869;DHT22;1442;47.448;8.582;2024-02-28T10:59:06;9.10;99.90
2869;DHT22;1442;47.448;8.582;2024-02-28T11:01:34;9.10;99.90
2869;DHT22;1442;47.448;8.582;2024-02-28T11:04:03;9.20;99.90
2869;DHT22;1442;47.448;8.582;2024-02-28T11:06:30;9.20;99.90
2869;DHT22;1442;47.448;8.582;2024-02-28T11:08:59;9.20;99.90
2869;DHT22;1442;47.448;8.582;2024-02-28T11:11:30;9.20;99.90
2869;DHT22;1442;47.448;8.582;2024-02-28T11:13:58;9.20;99.90
2869;DHT22;1442;47.448;8.582;2024-02-28T11:16:28;9.30;99.90
2869;DHT22;1442;47.448;8.582;2024-02-28T11:18:56;9.30;99.90
2869;DHT22;1442;47.448;8.582;2024-02-28T11:21:24;9.30;99.90
2869;DHT22;1442;47.448;8.582;2024-02-28T11:23:52;9.40;99.90
2869;DHT22;1442;47.448;8.582;2024-02-28T11:26:19;9.40;99.90
2869;DHT22;1442;47.448;8.582;2024-02-28T11:28:47;9.40;99.90
2869;DHT22;1442;47.448;8.582;2024-02-28T11:31:14;9.50;99.90
2869;DHT22;1442;47.448;8.582;2024-02-28T11:33:42;9.50;99.90
2869;DHT22;1442;47.448;8.582;2024-02-28T11:36:11;9.50;99.90
2869;DHT22;1442;47.448;8.582;2024-02-28T11:38:39;9.50;99.90
2869;DHT22;1442;47.448;8.582;2024-02-28T11:41:06;9.60;99.90
2869;DHT22;1442;47.448;8.582;2024-02-28T11:43:33;9.60;99.90
2869;DHT22;1442;47.448;8.582;2024-02-28T11:46:01;9.70;99.90
2869;DHT22;1442;47.448;8.582;2024-02-28T11:48:29;9.60;99.90
2869;DHT22;1442;47.448;8.582;2024-02-28T11:50:59;9.80;99.90
2869;DHT22;1442;47.448;8.582;2024-02-28T11:53:26;9.80;99.90
2869;DHT22;1442;47.448;8.582;2024-02-28T11:55:53;9.80;99.90
2869;DHT22;1442;47.448;8.582;2024-02-28T11:58:21;9.80;99.90
2869;DHT22;1442;47.448;8.582;2024-02-28T12:00:48;9.80;99.90
2869;DHT22;1442;47.448;8.582;2024-02-28T12:03:20;9.90;99.90
2869;DHT22;1442;47.448;8.582;2024-02-28T12:05:47;9.90;99.90
2869;DHT22;1442;47.448;8.582;2024-02-28T12:08:17;9.90;99.90
2869;DHT22;1442;47.448;8.582;2024-02-28T12:10:44;10.00;99.90
2869;DHT22;1442;47.448;8.582;2024-02-28T12:13:11;10.00;99.90
2869;DHT22;1442;47.448;8.582;2024-02-28T12:15:39;10.00;99.90
2869;DHT22;1442;47.448;8.582;2024-02-28T12:18:08;10.00;99.90
2869;DHT22;1442;47.448;8.582;2024-02-28T12:20:35;10.00;99.90
2869;DHT22;1442;47.448;8.582;2024-02-28T12:23:02;10.10;99.90
2869;DHT22;1442;47.448;8.582;2024-02-28T12:25:30;10.10;99.90
2869;DHT22;1442;47.448;8.582;2024-02-28T12:27:57;10.10;99.90
2869;DHT22;1442;47.448;8.582;2024-02-28T12:30:24;10.10;99.90
2869;DHT22;1442;47.448;8.582;2024-02-28T12:32:51;10.10;99.90
2869;DHT22;1442;47.448;8.582;2024-02-28T12:35:18;10.10;99.90
2869;DHT22;1442;47.448;8.582;2024-02-28T12:37:45;10.10;99.90
2869;DHT22;1442;47.448;8.582;2024-02-28T12:40:14;10.10;99.90
2869;DHT22;1442;47.448;8.582;2024-02-28T12:42:44;10.20;99.90
2869;DHT22;1442;47.448;8.582;2024-02-28T12:45:11;10.20;99.90
2869;DHT22;1442;47.448;8.582;2024-02-28T12:47:39;10.30;99.90
2869;DHT22;1442;47.448;8.582;2024-02-28T12:50:06;10.20;99.90
2869;DHT22;1442;47.448;8.582;2024-02-28T12:52:34;10.30;99.90
2869;DHT22;1442;47.448;8.582;2024-02-28T12:55:01;10.20;99.90
2869;DHT22;1442;47.448;8.582;2024-02-28T12:57:28;10.30;99.90
2869;DHT22;1442;47.448;8.582;2024-02-28T12:59:56;10.20;99.90
2869;DHT22;1442;47.448;8.582;2024-02-28T13:02:22;10.20;99.90
2869;DHT22;1442;47.448;8.582;2024-02-28T13:04:49;10.20;99.90
2869;DHT22;1442;47.448;8.582;2024-02-28T13:07:16;10.20;99.90
2869;DHT22;1442;47.448;8.582;2024-02-28T13:09:45;10.20;99.90
2869;DHT22;1442;47.448;8.582;2024-02-28T13:12:12;10.20;99.90
2869;DHT22;1442;47.448;8.582;2024-02-28T13:14:38;10.20;99.90
2869;DHT22;1442;47.448;8.582;2024-02-28T13:17:06;10.10;99.90
2869;DHT22;1442;47.448;8.582;2024-02-28T13:19:33;10.20;99.90
2869;DHT22;1442;47.448;8.582;2024-02-28T13:22:00;10.20;99.90
2869;DHT22;1442;47.448;8.582;2024-02-28T13:24:26;10.20;99.90
2869;DHT22;1442;47.448;8.582;2024-02-28T13:26:53;10.10;99.90
2869;DHT22;1442;47.448;8.582;2024-02-28T13:29:20;10.20;99.90
2869;DHT22;1442;47.448;8.582;2024-02-28T13:31:47;10.20;99.90
2869;DHT22;1442;47.448;8.582;2024-02-28T13:34:15;10.20;99.90
2869;DHT22;1442;47.448;8.582;2024-02-28T13:36:42;10.20;99.90
2869;DHT22;1442;47.448;8.582;2024-02-28T13:39:09;10.20;99.90
2869;DHT22;1442;47.448;8.582;2024-02-28T13:41:37;10.20;99.90
2869;DHT22;1442;47.448;8.582;2024-02-28T13:44:03;10.10;99.90
2869;DHT22;1442;47.448;8.582;2024-02-28T13:46:30;10.20;99.90
2869;DHT22;1442;47.448;8.582;2024-02-28T13:48:57;10.20;99.90
2869;DHT22;1442;47.448;8.582;2024-02-28T13:51:26;10.20;99.90
2869;DHT22;1442;47.448;8.582;2024-02-28T13:53:53;10.20;99.90
2869;DHT22;1442;47.448;8.582;2024-02-28T13:56:19;10.20;99.90
2869;DHT22;1442;47.448;8.582;2024-02-28T13:58:46;10.20;99.90
2869;DHT22;1442;47.448;8.582;2024-02-28T14:01:13;10.20;99.90
2869;DHT22;1442;47.448;8.582;2024-02-28T14:03:40;10.20;99.90
2869;DHT22;1442;47.448;8.582;2024-02-28T14:06:06;10.20;99.90
2869;DHT22;1442;47.448;8.582;2024-02-28T14:08:34;10.20;99.90
2869;DHT22;1442;47.448;8.582;2024-02-28T14:11:01;10.20;99.90
2869;DHT22;1442;47.448;8.582;2024-02-28T14:13:28;10.20;99.90
2869;DHT22;1442;47.448;8.582;2024-02-28T14:15:55;10.20;99.90
2869;DHT22;1442;47.448;8.582;2024-02-28T14:18:22;10.10;99.90
2869;DHT22;1442;47.448;8.582;2024-02-28T14:20:49;10.20;99.90
2869;DHT22;1442;47.448;8.582;2024-02-28T14:23:15;10.20;99.90
2869;DHT22;1442;47.448;8.582;2024-02-28T14:25:44;10.20;99.90
2869;DHT22;1442;47.448;8.582;2024-02-28T14:28:11;10.20;99.90
2869;DHT22;1442;47.448;8.582;2024-02-28T14:30:38;10.20;99.90
2869;DHT22;1442;47.448;8.582;2024-02-28T14:33:05;10.20;99.90
2869;DHT22;1442;47.448;8.582;2024-02-28T14:35:33;10.20;99.90
2869;DHT22;1442;47.448;8.582;2024-02-28T14:37:59;10.20;99.90
2869;DHT22;1442;47.448;8.582;2024-02-28T14:40:26;10.20;99.90
2869;DHT22;1442;47.448;8.582;2024-02-28T14:42:55;10.20;99.90
2869;DHT22;1442;47.448;8.582;2024-02-28T14:45:22;10.30;99.90
2869;DHT22;1442;47.448;8.582;2024-02-28T14:47:50;10.30;99.90
2869;DHT22;1442;47.448;8.582;2024-02-28T14:50:17;10.20;99.90
2869;DHT22;1442;47.448;8.582;2024-02-28T14:52:44;10.30;99.90
2869;DHT22;1442;47.448;8.582;2024-02-28T14:55:11;10.30;99.90
2869;DHT22;1442;47.448;8.582;2024-02-28T14:57:38;10.30;99.90
2869;DHT22;1442;47.448;8.582;2024-02-28T15:00:08;10.30;99.90
2869;DHT22;1442;47.448;8.582;2024-02-28T15:02:39;10.30;99.90
2869;DHT22;1442;47.448;8.582;2024-02-28T15:05:07;10.30;99.90
2869;DHT22;1442;47.448;8.582;2024-02-28T15:07:34;10.30;99.90
2869;DHT22;1442;47.448;8.582;2024-02-28T15:10:01;10.30;99.90
2869;DHT22;1442;47.448;8.582;2024-02-28T15:12:30;10.30;99.90
2869;DHT22;1442;47.448;8.582;2024-02-28T15:14:58;10.30;99.90
2869;DHT22;1442;47.448;8.582;2024-02-28T15:17:26;10.40;99.90
2869;DHT22;1442;47.448;8.582;2024-02-28T15:19:53;10.40;99.90
2869;DHT22;1442;47.448;8.582;2024-02-28T15:22:20;10.40;99.90
2869;DHT22;1442;47.448;8.582;2024-02-28T15:24:47;10.30;99.90
2869;DHT22;1442;47.448;8.582;2024-02-28T15:27:13;10.40;99.90
2869;DHT22;1442;47.448;8.582;2024-02-28T15:29:40;10.40;99.90
2869;DHT22;1442;47.448;8.582;2024-02-28T15:32:07;10.50;99.90
2869;DHT22;1442;47.448;8.582;2024-02-28T15:34:35;10.50;99.90
2869;DHT22;1442;47.448;8.582;2024-02-28T15:37:02;10.40;99.90
2869;DHT22;1442;47.448;8.582;2024-02-28T15:39:29;10.40;99.90
2869;DHT22;1442;47.448;8.582;2024-02-28T15:41:56;10.40;99.90
2869;DHT22;1442;47.448;8.582;2024-02-28T15:44:22;10.40;99.90
2869;DHT22;1442;47.448;8.582;2024-02-28T15:46:49;10.30;99.90
2869;DHT22;1442;47.448;8.582;2024-02-28T15:49:16;10.40;99.90
2869;DHT22;1442;47.448;8.582;2024-02-28T15:51:45;10.40;99.90
2869;DHT22;1442;47.448;8.582;2024-02-28T15:54:12;10.40;99.90
2869;DHT22;1442;47.448;8.582;2024-02-28T15:56:39;10.40;99.90
2869;DHT22;1442;47.448;8.582;2024-02-28T15:59:08;10.40;99.90
2869;DHT22;1442;47.448;8.582;2024-02-28T16:01:38;10.40;99.90
2869;DHT22;1442;47.448;8.582;2024-02-28T16:04:04;10.40;99.90
2869;DHT22;1442;47.448;8.582;2024-02-28T16:06:31;10.40;99.90
2869;DHT22;1442;47.448;8.582;2024-02-28T16:08:59;10.50;99.90
2869;DHT22;1442;47.448;8.582;2024-02-28T16:11:26;10.50;99.90
2869;DHT22;1442;47.448;8.582;2024-02-28T16:13:53;10.50;99.90